Time;durP1;ratioP1;P1;durP2;ratioP2;P2;SDS_P1;SDS_P2;PMS_P1;PMS_P2;Temp;Humidity;BMP_temperature;BMP_pressure;BME280_temperature;BME280_humidity;BME280_pressure;Samples;Min_cycle;Max_cycle;Signal;HPM_P1;HPM_P2
2023/07/13 00:02:28;;;;;;;0.20;0.20;;;12.80;61.00;;;;;;5034009;28;20295;-56
2023/07/13 00:04:59;;;;;;;0.10;0.10;;;12.80;61.20;;;;;;5039827;28;20449;-55
2023/07/13 00:07:31;;;;;;;0.20;0.20;;;12.90;61.70;;;;;;5051658;28;20253;-56
2023/07/13 00:10:02;;;;;;;0.10;0.10;;;12.90;61.90;;;;;;5051864;28;20230;-58
2023/07/13 00:12:34;;;;;;;0.10;0.10;;;12.90;62.00;;;;;;5051238;28;20211;-56
2023/07/13 00:15:10;;;;;;;0.10;0.10;;;13.00;62.00;;;;;;5051050;28;20892;-57
2023/07/13 00:17:40;;;;;;;0.10;0.10;;;13.00;61.90;;;;;;5051559;28;20280;-57
2023/07/13 00:20:11;;;;;;;0.20;0.20;;;13.00;61.80;;;;;;5051944;28;20215;-55
2023/07/13 00:22:42;;;;;;;0.10;0.10;;;13.10;61.80;;;;;;5051590;28;20215;-57
2023/07/13 00:25:14;;;;;;;0.10;0.10;;;13.10;61.70;;;;;;5051770;28;20266;-58
2023/07/13 00:27:48;;;;;;;0.20;0.20;;;13.10;61.60;;;;;;5051852;28;20195;-56
2023/07/13 00:30:21;;;;;;;0.20;0.20;;;13.10;61.60;;;;;;5050903;28;20639;-59
2023/07/13 00:32:52;;;;;;;0.10;0.10;;;13.20;61.60;;;;;;5051367;28;20188;-58
2023/07/13 00:35:22;;;;;;;0.10;0.10;;;13.20;61.60;;;;;;5051358;28;20207;-57
2023/07/13 00:37:53;;;;;;;0.20;0.20;;;13.20;61.60;;;;;;5050334;28;20223;-58
2023/07/13 00:40:23;;;;;;;0.10;0.10;;;13.20;61.60;;;;;;5040952;28;20245;-58
2023/07/13 00:42:56;;;;;;;0.20;0.20;;;13.30;61.60;;;;;;5051456;28;20187;-58
2023/07/13 00:46:02;;;;;;;0.20;0.20;;;13.30;61.60;;;;;;5047321;28;20214;-58
2023/07/13 00:48:39;;;;;;;0.10;0.10;;;13.30;61.70;;;;;;5050499;28;20191;-58
2023/07/13 00:51:11;;;;;;;0.10;0.10;;;13.40;61.70;;;;;;5050672;28;20655;-58
2023/07/13 00:53:41;;;;;;;0.20;0.20;;;13.40;61.70;;;;;;5050876;28;20199;-58
2023/07/13 00:56:13;;;;;;;0.10;0.10;;;13.40;61.60;;;;;;5049948;28;20647;-58
2023/07/13 00:58:43;;;;;;;0.17;0.17;;;13.50;61.80;;;;;;5051303;28;20191;-58
2023/07/13 01:01:14;;;;;;;0.10;0.10;;;13.50;61.80;;;;;;5041329;28;20239;-58
2023/07/13 01:03:47;;;;;;;0.10;0.10;;;13.50;61.70;;;;;;5030824;28;20196;-58
2023/07/13 01:06:19;;;;;;;0.10;0.10;;;13.50;61.60;;;;;;5033586;28;20196;-58
2023/07/13 01:08:49;;;;;;;0.10;0.10;;;13.60;61.70;;;;;;5030982;28;20199;-58
2023/07/13 01:11:23;;;;;;;0.10;0.10;;;13.60;61.60;;;;;;5046557;28;20191;-58
2023/07/13 01:13:54;;;;;;;0.10;0.10;;;13.60;61.60;;;;;;5058678;28;20186;-58
2023/07/13 01:16:29;;;;;;;0.10;0.10;;;13.60;61.70;;;;;;5058908;28;20265;-58
2023/07/13 01:19:02;;;;;;;0.10;0.10;;;13.70;61.80;;;;;;5070140;28;20198;-58
2023/07/13 01:21:42;;;;;;;0.13;0.13;;;13.70;61.70;;;;;;5054482;28;20187;-58
2023/07/13 01:24:13;;;;;;;0.10;0.10;;;13.70;61.80;;;;;;5050254;28;20219;-58
2023/07/13 01:26:43;;;;;;;0.10;0.10;;;13.80;61.90;;;;;;5049930;28;20191;-58
2023/07/13 01:29:14;;;;;;;0.10;0.10;;;13.80;61.90;;;;;;5030825;28;20652;-58
2023/07/13 01:31:45;;;;;;;0.10;0.10;;;13.80;61.90;;;;;;5048462;28;20199;-58
2023/07/13 01:34:16;;;;;;;0.10;0.10;;;13.80;61.80;;;;;;5050522;28;20706;-58
2023/07/13 01:36:48;;;;;;;0.10;0.10;;;13.90;61.80;;;;;;5050783;28;20581;-58
2023/07/13 01:39:19;;;;;;;0.10;0.10;;;13.90;61.80;;;;;;5050310;28;20421;-58
2023/07/13 01:41:49;;;;;;;0.10;0.10;;;13.90;61.90;;;;;;5050205;28;20191;-58
2023/07/13 01:44:20;;;;;;;0.10;0.10;;;13.90;61.80;;;;;;5046653;28;20259;-58
2023/07/13 01:46:51;;;;;;;0.10;0.10;;;14.00;61.80;;;;;;5047836;28;20194;-58
2023/07/13 01:49:21;;;;;;;0.10;0.10;;;14.00;61.70;;;;;;5051203;28;20254;-58
2023/07/13 01:51:54;;;;;;;0.10;0.10;;;14.00;61.60;;;;;;5050071;28;20192;-58
2023/07/13 01:54:24;;;;;;;0.20;0.20;;;14.10;61.60;;;;;;5050766;28;20231;-57
2023/07/13 01:56:55;;;;;;;0.10;0.10;;;14.10;61.50;;;;;;5050563;28;20554;-58
2023/07/13 01:59:26;;;;;;;0.10;0.10;;;14.10;61.30;;;;;;5053539;28;20665;-58
2023/07/13 02:01:56;;;;;;;0.10;0.10;;;14.10;61.30;;;;;;5054408;28;20655;-58
2023/07/13 02:04:27;;;;;;;0.10;0.10;;;14.10;61.30;;;;;;5053573;28;20219;-58
2023/07/13 02:06:59;;;;;;;0.10;0.10;;;14.20;61.30;;;;;;5054099;28;20203;-58
2023/07/13 02:09:31;;;;;;;0.10;0.10;;;14.20;61.50;;;;;;5053593;28;20210;-58
2023/07/13 02:12:01;;;;;;;0.10;0.10;;;14.20;61.50;;;;;;5069448;28;20203;-58
2023/07/13 02:14:32;;;;;;;0.10;0.10;;;14.20;61.40;;;;;;5073720;28;20222;-58
2023/07/13 02:17:03;;;;;;;0.10;0.10;;;14.30;61.50;;;;;;5056172;28;20221;-58
2023/07/13 02:19:34;;;;;;;0.10;0.10;;;14.30;61.30;;;;;;5053408;28;20195;-58
2023/07/13 02:22:07;;;;;;;0.15;0.15;;;14.30;61.20;;;;;;5054075;28;20218;-58
2023/07/13 02:24:38;;;;;;;0.10;0.10;;;14.30;61.20;;;;;;5043284;28;20578;-58
2023/07/13 02:27:08;;;;;;;0.10;0.10;;;14.30;61.20;;;;;;5041371;28;20203;-58
2023/07/13 02:29:39;;;;;;;0.10;0.10;;;14.40;61.30;;;;;;5053954;28;20221;-58
2023/07/13 02:32:10;;;;;;;0.15;0.15;;;14.40;61.20;;;;;;5053304;28;20210;-58
2023/07/13 02:34:41;;;;;;;0.10;0.10;;;14.40;61.20;;;;;;5052318;28;20216;-58
2023/07/13 02:37:14;;;;;;;0.10;0.10;;;14.40;61.20;;;;;;5052858;28;20639;-58
2023/07/13 02:39:44;;;;;;;0.10;0.10;;;14.40;61.10;;;;;;5053399;28;20218;-58
2023/07/13 02:42:15;;;;;;;0.08;0.08;;;14.50;61.20;;;;;;5052447;28;20206;-58
2023/07/13 02:44:45;;;;;;;0.10;0.10;;;14.50;61.20;;;;;;5053139;28;20215;-58
2023/07/13 02:47:16;;;;;;;0.10;0.10;;;14.50;61.10;;;;;;5052917;28;20203;-58
2023/07/13 02:49:47;;;;;;;0.10;0.10;;;14.50;61.00;;;;;;5053535;28;20222;-58
2023/07/13 02:52:19;;;;;;;0.10;0.10;;;14.50;61.10;;;;;;5053190;28;20187;-58
2023/07/13 02:54:50;;;;;;;0.20;0.20;;;14.50;61.10;;;;;;5052340;28;20629;-58
2023/07/13 02:57:20;;;;;;;0.10;0.10;;;14.60;61.20;;;;;;5053161;28;20226;-58
2023/07/13 02:59:51;;;;;;;0.10;0.10;;;14.60;61.10;;;;;;5052862;28;20195;-58
2023/07/13 03:02:22;;;;;;;0.20;0.20;;;14.60;61.10;;;;;;5053218;28;20204;-58
2023/07/13 03:04:52;;;;;;;0.10;0.10;;;14.60;61.00;;;;;;5038558;28;20223;-58
2023/07/13 03:07:25;;;;;;;0.10;0.10;;;14.70;61.00;;;;;;5033258;28;20660;-58
2023/07/13 03:09:58;;;;;;;0.00;0.00;;;14.70;61.10;;;;;;5051727;28;20633;-58
2023/07/13 03:12:29;;;;;;;0.10;0.10;;;14.70;61.10;;;;;;5042005;28;20682;-58
2023/07/13 03:15:01;;;;;;;0.10;0.10;;;14.70;61.00;;;;;;5052367;28;20216;-58
2023/07/13 03:17:31;;;;;;;0.10;0.10;;;14.70;61.10;;;;;;5052258;28;20227;-58
2023/07/13 03:20:03;;;;;;;0.10;0.10;;;14.70;61.00;;;;;;5052440;28;20195;-58
2023/07/13 03:22:35;;;;;;;0.10;0.10;;;14.70;61.10;;;;;;5052567;28;20954;-58
2023/07/13 03:25:06;;;;;;;0.10;0.10;;;14.70;61.10;;;;;;5052190;28;20618;-58
2023/07/13 03:27:37;;;;;;;0.10;0.10;;;14.80;61.20;;;;;;5053027;28;20223;-58
2023/07/13 03:30:08;;;;;;;0.10;0.10;;;14.80;61.20;;;;;;5052571;28;20191;-58
2023/07/13 03:32:39;;;;;;;0.10;0.10;;;14.80;61.10;;;;;;5052933;28;20215;-58
2023/07/13 03:35:10;;;;;;;0.10;0.10;;;14.90;61.10;;;;;;5052644;28;20592;-58
2023/07/13 03:37:46;;;;;;;0.10;0.10;;;14.90;61.10;;;;;;5052412;28;20215;-58
2023/07/13 03:40:17;;;;;;;0.10;0.10;;;14.90;61.10;;;;;;5052740;28;20191;-58
2023/07/13 03:42:47;;;;;;;0.10;0.10;;;14.90;61.10;;;;;;5052825;28;20191;-58
2023/07/13 03:45:18;;;;;;;0.10;0.10;;;14.90;61.00;;;;;;5052345;28;20220;-58
2023/07/13 03:47:49;;;;;;;0.05;0.05;;;14.90;61.00;;;;;;5033303;28;20200;-58
2023/07/13 03:50:19;;;;;;;0.10;0.10;;;15.00;61.10;;;;;;5034676;28;20633;-58
2023/07/13 03:52:52;;;;;;;0.10;0.10;;;15.00;61.10;;;;;;5047703;28;20252;-58
2023/07/13 03:55:23;;;;;;;0.10;0.10;;;15.00;61.10;;;;;;5052162;28;20207;-58
2023/07/13 03:58:00;;;;;;;0.10;0.10;;;15.10;61.10;;;;;;5034295;28;20879;-59
2023/07/13 04:00:30;;;;;;;0.10;0.10;;;15.10;61.00;;;;;;5037219;28;20195;-58
2023/07/13 04:03:01;;;;;;;0.10;0.10;;;15.10;61.00;;;;;;5049393;28;20200;-58
2023/07/13 04:05:31;;;;;;;0.00;0.00;;;15.10;61.00;;;;;;5052389;28;20289;-58
2023/07/13 04:08:04;;;;;;;0.10;0.10;;;15.20;61.00;;;;;;5050863;28;20204;-58
2023/07/13 04:10:35;;;;;;;0.10;0.10;;;15.20;60.90;;;;;;5039728;28;20200;-58
2023/07/13 04:13:05;;;;;;;0.10;0.10;;;15.20;60.90;;;;;;5051562;28;20199;-58
2023/07/13 04:15:36;;;;;;;0.10;0.10;;;15.20;60.90;;;;;;5050326;28;20211;-58
2023/07/13 04:18:07;;;;;;;0.10;0.10;;;15.30;61.00;;;;;;5051748;28;20231;-58
2023/07/13 04:20:37;;;;;;;0.00;0.00;;;15.30;60.90;;;;;;5051136;28;20640;-58
2023/07/13 04:23:10;;;;;;;0.10;0.10;;;15.30;60.90;;;;;;5052304;28;20249;-58
2023/07/13 04:25:40;;;;;;;0.10;0.10;;;15.30;60.90;;;;;;5050671;28;20593;-59
2023/07/13 04:28:11;;;;;;;0.10;0.10;;;15.40;60.90;;;;;;5051122;28;20195;-58
2023/07/13 04:30:42;;;;;;;0.10;0.10;;;15.40;60.90;;;;;;5046642;28;20207;-58
2023/07/13 04:33:12;;;;;;;0.10;0.10;;;15.40;60.80;;;;;;5046759;28;20195;-59
2023/07/13 04:35:43;;;;;;;0.10;0.10;;;15.50;60.80;;;;;;5051288;28;20211;-58
2023/07/13 04:38:15;;;;;;;0.03;0.03;;;15.50;60.70;;;;;;5051064;28;20679;-58
2023/07/13 04:40:48;;;;;;;0.10;0.10;;;15.50;60.70;;;;;;5051168;28;20191;-58
2023/07/13 04:43:18;;;;;;;0.00;0.00;;;15.60;60.80;;;;;;5050956;28;20551;-46
2023/07/13 04:45:49;;;;;;;0.10;0.10;;;15.60;60.70;;;;;;5048427;28;20218;-59
2023/07/13 04:48:19;;;;;;;0.10;0.10;;;15.60;59.70;;;;;;5051275;28;20195;-58
2023/07/13 04:50:57;;;;;;;0.10;0.10;;;15.60;59.50;;;;;;5039976;28;20195;-58
2023/07/13 04:53:30;;;;;;;0.10;0.10;;;15.60;59.50;;;;;;5050761;28;20206;-58
2023/07/13 04:56:01;;;;;;;0.10;0.10;;;15.60;59.60;;;;;;5046926;28;20211;-59
2023/07/13 04:58:31;;;;;;;0.10;0.10;;;15.60;59.60;;;;;;5031576;28;20630;-59
2023/07/13 05:01:04;;;;;;;0.00;0.00;;;15.60;59.60;;;;;;5039228;28;20206;-58
2023/07/13 05:03:36;;;;;;;0.10;0.10;;;15.60;59.60;;;;;;5051491;28;20201;-58
2023/07/13 05:06:09;;;;;;;0.17;0.17;;;15.60;59.60;;;;;;5050208;28;20306;-59
2023/07/13 05:08:42;;;;;;;0.10;0.10;;;15.60;59.60;;;;;;5049795;28;20663;-58
2023/07/13 05:11:12;;;;;;;0.10;0.10;;;15.60;59.70;;;;;;5048934;28;20668;-58
2023/07/13 05:13:43;;;;;;;0.08;0.08;;;15.60;59.70;;;;;;5050592;28;20203;-58
2023/07/13 05:16:14;;;;;;;0.10;0.10;;;15.60;59.80;;;;;;5048299;28;20196;-58
2023/07/13 05:18:44;;;;;;;0.10;0.10;;;15.60;59.80;;;;;;5048609;28;20235;-58
2023/07/13 05:21:15;;;;;;;0.13;0.13;;;15.60;59.70;;;;;;5050056;28;20551;-58
2023/07/13 05:23:48;;;;;;;0.00;0.00;;;15.60;59.70;;;;;;5056020;28;20203;-59
2023/07/13 05:26:18;;;;;;;0.10;0.10;;;15.60;59.70;;;;;;5060353;28;20188;-58
2023/07/13 05:28:49;;;;;;;0.10;0.10;;;15.60;59.60;;;;;;5060892;28;20207;-58
2023/07/13 05:31:19;;;;;;;0.10;0.10;;;15.60;59.60;;;;;;5051897;28;20769;-58
2023/07/13 05:33:50;;;;;;;0.00;0.00;;;15.60;59.60;;;;;;5052226;28;20563;-59
2023/07/13 05:36:21;;;;;;;0.10;0.10;;;15.60;59.50;;;;;;5054317;28;20199;-58
2023/07/13 05:38:53;;;;;;;0.15;0.15;;;15.60;59.70;;;;;;5053221;28;20227;-58
2023/07/13 05:41:24;;;;;;;0.10;0.10;;;15.60;59.60;;;;;;5056942;28;20191;-58
2023/07/13 05:43:54;;;;;;;0.10;0.10;;;15.60;59.60;;;;;;5074177;28;20214;-59
2023/07/13 05:46:25;;;;;;;0.10;0.10;;;15.60;59.60;;;;;;5056654;28;20678;-58
2023/07/13 05:48:56;;;;;;;0.10;0.10;;;15.60;59.60;;;;;;5055320;28;20597;-58
2023/07/13 05:51:26;;;;;;;0.10;0.10;;;15.60;59.60;;;;;;5053348;28;20191;-58
2023/07/13 05:53:59;;;;;;;0.10;0.10;;;15.60;59.60;;;;;;5053549;28;20199;-58
2023/07/13 05:56:30;;;;;;;0.10;0.10;;;15.60;59.60;;;;;;5052417;28;20242;-58
2023/07/13 05:59:00;;;;;;;0.10;0.10;;;15.60;59.50;;;;;;5054033;28;20722;-58
2023/07/13 06:01:32;;;;;;;0.10;0.10;;;15.60;59.50;;;;;;5053983;28;20191;-58
2023/07/13 06:04:02;;;;;;;0.10;0.10;;;15.60;59.50;;;;;;5052977;28;20211;-58
2023/07/13 06:06:33;;;;;;;0.17;0.17;;;15.60;59.50;;;;;;5053460;28;20230;-59
2023/07/13 06:09:06;;;;;;;0.03;0.03;;;15.60;59.60;;;;;;5053261;28;20253;-59
2023/07/13 06:11:37;;;;;;;0.10;0.10;;;15.60;59.60;;;;;;5053155;28;20543;-59
2023/07/13 06:14:07;;;;;;;0.10;0.10;;;15.60;59.50;;;;;;5053957;28;20306;-59
2023/07/13 06:16:38;;;;;;;0.10;0.10;;;15.60;59.60;;;;;;5054446;28;20202;-59
2023/07/13 06:19:08;;;;;;;0.10;0.10;;;15.50;59.50;;;;;;5053216;28;20224;-59
2023/07/13 06:21:39;;;;;;;0.10;0.10;;;15.50;59.50;;;;;;5054151;28;20597;-59
2023/07/13 06:24:11;;;;;;;0.10;0.10;;;15.50;59.50;;;;;;5052901;28;20261;-59
2023/07/13 06:26:42;;;;;;;0.10;0.10;;;15.60;59.60;;;;;;5053956;28;20191;-59
2023/07/13 06:29:13;;;;;;;0.10;0.10;;;15.50;59.50;;;;;;5053055;28;20662;-59
2023/07/13 06:31:43;;;;;;;0.10;0.10;;;15.50;59.60;;;;;;5052249;28;20204;-59
2023/07/13 06:34:14;;;;;;;0.10;0.10;;;15.50;59.60;;;;;;5053580;28;20219;-59
2023/07/13 06:36:45;;;;;;;0.10;0.10;;;15.50;59.60;;;;;;5053106;28;20214;-59
2023/07/13 06:39:17;;;;;;;0.10;0.10;;;15.50;59.60;;;;;;5053216;28;20219;-59
2023/07/13 06:41:48;;;;;;;0.00;0.00;;;15.50;59.60;;;;;;5042602;28;20188;-59
2023/07/13 06:44:18;;;;;;;0.10;0.10;;;15.50;59.50;;;;;;5033281;28;20270;-59
2023/07/13 06:46:49;;;;;;;0.10;0.10;;;15.50;59.50;;;;;;5042199;28;20272;-57
2023/07/13 06:49:20;;;;;;;0.10;0.10;;;15.50;59.60;;;;;;5053537;28;20781;-58
2023/07/13 06:51:50;;;;;;;0.10;0.10;;;15.50;59.60;;;;;;5047460;28;20253;-59
2023/07/13 06:54:23;;;;;;;0.10;0.10;;;15.50;59.90;;;;;;5041637;28;20455;-59
2023/07/13 06:56:53;;;;;;;0.10;0.10;;;15.50;59.90;;;;;;5040868;28;20191;-59
2023/07/13 06:59:24;;;;;;;0.10;0.10;;;15.50;59.90;;;;;;5044318;28;20216;-59
2023/07/13 07:01:55;;;;;;;0.10;0.10;;;15.50;59.80;;;;;;5042035;28;20651;-59
2023/07/13 07:04:25;;;;;;;0.10;0.10;;;15.50;59.70;;;;;;5042438;28;20262;-59
2023/07/13 07:06:56;;;;;;;0.10;0.10;;;15.50;59.70;;;;;;5050528;28;20434;-57
2023/07/13 07:09:29;;;;;;;0.20;0.20;;;15.50;59.60;;;;;;5052039;28;20195;-58
2023/07/13 07:12:00;;;;;;;0.10;0.10;;;15.50;60.20;;;;;;5053088;28;20199;-57
2023/07/13 07:14:31;;;;;;;0.13;0.13;;;15.50;59.60;;;;;;5051913;28;20223;-58
2023/07/13 07:17:02;;;;;;;0.10;0.10;;;15.50;59.50;;;;;;5051913;28;20199;-57
2023/07/13 07:19:34;;;;;;;0.10;0.10;;;15.50;59.40;;;;;;5051602;28;20223;-58
2023/07/13 07:22:05;;;;;;;0.10;0.10;;;15.50;59.40;;;;;;5052259;28;20192;-58
2023/07/13 07:24:37;;;;;;;0.10;0.10;;;15.50;59.40;;;;;;5049911;28;20211;-59
2023/07/13 07:27:08;;;;;;;0.10;0.10;;;15.50;59.40;;;;;;5052271;28;20199;-58
2023/07/13 07:29:39;;;;;;;0.10;0.10;;;15.50;59.40;;;;;;5052973;28;20663;-58
2023/07/13 07:32:10;;;;;;;0.10;0.10;;;15.40;59.40;;;;;;5051728;28;20261;-57
2023/07/13 07:34:41;;;;;;;0.00;0.00;;;15.40;59.40;;;;;;5052088;28;20219;-58
2023/07/13 07:37:14;;;;;;;0.15;0.15;;;15.40;59.40;;;;;;5051818;28;20655;-55
2023/07/13 07:39:46;;;;;;;0.10;0.10;;;15.40;59.40;;;;;;5051189;28;20219;-59
2023/07/13 07:42:18;;;;;;;0.10;0.10;;;15.40;59.30;;;;;;5052211;28;20188;-58
2023/07/13 07:44:49;;;;;;;0.10;0.10;;;15.40;59.20;;;;;;5052391;28;20683;-59
2023/07/13 07:47:23;;;;;;;0.10;0.10;;;15.40;59.20;;;;;;5052584;28;20256;-59
2023/07/13 07:49:53;;;;;;;0.10;0.10;;;15.40;59.20;;;;;;5052463;28;20191;-58
2023/07/13 07:52:24;;;;;;;0.10;0.10;;;15.40;59.20;;;;;;5052518;28;20593;-59
2023/07/13 07:54:56;;;;;;;0.10;0.10;;;15.40;59.20;;;;;;5050933;28;20220;-58
2023/07/13 07:57:27;;;;;;;0.13;0.13;;;15.40;59.20;;;;;;5051700;28;20256;-58
2023/07/13 07:59:58;;;;;;;0.20;0.20;;;15.40;59.20;;;;;;5052372;28;20634;-59
2023/07/13 08:02:28;;;;;;;0.08;0.08;;;15.40;59.20;;;;;;5052253;28;20199;-59
2023/07/13 08:04:59;;;;;;;0.10;0.10;;;15.40;59.20;;;;;;5051687;28;20222;-59
2023/07/13 08:07:30;;;;;;;0.10;0.10;;;15.30;59.20;;;;;;5051129;28;20203;-58
2023/07/13 08:10:02;;;;;;;0.00;0.00;;;15.30;59.20;;;;;;5052086;28;20207;-59
2023/07/13 08:12:35;;;;;;;0.10;0.10;;;15.30;59.20;;;;;;5052105;28;20210;-59
2023/07/13 08:15:07;;;;;;;0.10;0.10;;;15.30;59.20;;;;;;5050248;28;20207;-59
2023/07/13 08:17:38;;;;;;;0.00;0.00;;;15.30;59.20;;;;;;5045055;28;20195;-58
2023/07/13 08:20:10;;;;;;;0.10;0.10;;;15.30;59.20;;;;;;5052154;28;20691;-58
2023/07/13 08:22:40;;;;;;;0.00;0.00;;;15.30;59.20;;;;;;5051585;28;20234;-59
2023/07/13 08:25:13;;;;;;;0.10;0.10;;;15.20;59.00;;;;;;5051807;28;20219;-59
2023/07/13 08:27:44;;;;;;;0.10;0.10;;;15.20;59.10;;;;;;5052028;28;20207;-59
2023/07/13 08:30:14;;;;;;;0.10;0.10;;;15.20;59.00;;;;;;5051930;28;20203;-58
2023/07/13 08:32:45;;;;;;;0.10;0.10;;;15.20;59.10;;;;;;5031809;28;20675;-59
2023/07/13 08:35:16;;;;;;;0.10;0.10;;;15.20;59.10;;;;;;5031750;28;20226;-59
2023/07/13 08:37:46;;;;;;;0.10;0.10;;;15.20;59.10;;;;;;5031736;28;20219;-59
2023/07/13 08:40:19;;;;;;;0.10;0.10;;;15.20;59.10;;;;;;5031006;28;20219;-59
2023/07/13 08:42:55;;;;;;;0.10;0.10;;;15.20;59.10;;;;;;5031651;28;20200;-59
2023/07/13 08:45:29;;;;;;;0.10;0.10;;;15.20;59.10;;;;;;5031586;28;20215;-59
2023/07/13 08:48:04;;;;;;;0.10;0.10;;;15.20;59.10;;;;;;5031791;28;20195;-59
2023/07/13 08:50:38;;;;;;;0.10;0.10;;;15.20;59.10;;;;;;5031190;28;20203;-59
2023/07/13 08:53:11;;;;;;;0.10;0.10;;;15.10;59.00;;;;;;5046647;28;20195;-59
2023/07/13 08:55:44;;;;;;;0.10;0.10;;;15.20;59.00;;;;;;5033612;28;20212;-59
2023/07/13 08:58:17;;;;;;;0.10;0.10;;;15.10;59.00;;;;;;5031291;28;20206;-59
2023/07/13 09:00:55;;;;;;;0.10;0.10;;;15.10;59.00;;;;;;5038234;28;20226;-59
2023/07/13 09:03:29;;;;;;;0.10;0.10;;;15.10;59.00;;;;;;5049950;28;20679;-58
2023/07/13 09:06:02;;;;;;;0.10;0.10;;;15.10;59.00;;;;;;5050737;28;20587;-59
2023/07/13 09:08:49;;;;;;;0.08;0.08;;;15.10;59.00;;;;;;5049451;28;20223;-59
2023/07/13 09:11:35;;;;;;;0.10;0.10;;;15.10;59.00;;;;;;5050710;28;20551;-58
2023/07/13 09:14:29;;;;;;;0.10;0.10;;;15.10;59.00;;;;;;5051066;28;20219;-59
2023/07/13 09:17:00;;;;;;;0.10;0.10;;;15.10;59.00;;;;;;5050014;28;20203;-59
2023/07/13 09:19:35;;;;;;;0.10;0.10;;;15.00;58.90;;;;;;5031264;28;20565;-59
2023/07/13 09:22:11;;;;;;;0.10;0.10;;;15.00;59.00;;;;;;5030712;28;20724;-58
2023/07/13 09:24:51;;;;;;;0.10;0.10;;;15.00;59.00;;;;;;5031058;28;20270;-59
2023/07/13 09:27:30;;;;;;;0.10;0.10;;;15.00;59.00;;;;;;5031417;28;20191;-59
2023/07/13 09:30:22;;;;;;;0.10;0.10;;;15.00;59.20;;;;;;5030836;28;20278;-57
2023/07/13 09:32:55;;;;;;;0.10;0.10;;;15.00;59.00;;;;;;5030601;28;20196;-59
2023/07/13 09:35:29;;;;;;;0.10;0.10;;;15.00;59.10;;;;;;5045660;28;20218;-59
2023/07/13 09:38:16;;;;;;;0.10;0.10;;;14.90;59.10;;;;;;5050153;28;20238;-54
2023/07/13 09:41:11;;;;;;;0.15;0.15;;;14.90;59.20;;;;;;5041314;28;20222;-56
2023/07/13 09:44:04;;;;;;;0.10;0.10;;;14.90;59.20;;;;;;5028730;28;20196;-57
2023/07/13 09:46:35;;;;;;;0.10;0.10;;;14.90;59.20;;;;;;5030801;28;20207;-60
2023/07/13 09:49:05;;;;;;;0.10;0.10;;;14.90;59.10;;;;;;5031421;28;20204;-59
2023/07/13 09:51:36;;;;;;;0.10;0.10;;;14.90;59.10;;;;;;5030487;28;20694;-56
2023/07/13 09:54:07;;;;;;;0.10;0.10;;;14.90;59.20;;;;;;5030858;28;20216;-59
2023/07/13 09:56:37;;;;;;;0.10;0.10;;;14.90;59.20;;;;;;5030695;28;20203;-59
2023/07/13 09:59:23;;;;;;;0.10;0.10;;;14.90;59.20;;;;;;5030801;28;20204;-55
2023/07/13 10:01:54;;;;;;;0.10;0.10;;;14.90;59.20;;;;;;5043853;28;20196;-57
2023/07/13 10:04:33;;;;;;;0.10;0.10;;;14.90;59.20;;;;;;5049579;28;20238;-58
2023/07/13 10:07:12;;;;;;;0.10;0.10;;;14.90;59.20;;;;;;5054857;28;20722;-57
2023/07/13 10:09:42;;;;;;;0.10;0.10;;;14.80;59.20;;;;;;5050625;28;20595;-54
2023/07/13 10:12:18;;;;;;;0.10;0.10;;;14.80;59.20;;;;;;5053428;28;20199;-55
2023/07/13 10:14:53;;;;;;;0.10;0.10;;;14.80;59.20;;;;;;5070102;28;20219;-52
2023/07/13 10:17:32;;;;;;;0.10;0.10;;;14.80;59.20;;;;;;5064712;28;20210;-55
2023/07/13 10:20:05;;;;;;;0.10;0.10;;;14.80;59.20;;;;;;5033316;28;20799;-54
2023/07/13 10:22:44;;;;;;;0.10;0.10;;;14.80;59.10;;;;;;5040383;28;20219;-55
2023/07/13 10:25:23;;;;;;;0.10;0.10;;;14.80;59.10;;;;;;5053263;28;20231;-58
2023/07/13 10:27:56;;;;;;;0.10;0.10;;;14.80;59.10;;;;;;5054089;28;20230;-53
2023/07/13 10:30:31;;;;;;;0.10;0.10;;;14.80;59.10;;;;;;5052780;28;20196;-56
2023/07/13 10:33:04;;;;;;;0.13;0.13;;;14.80;59.10;;;;;;5053843;28;20270;-53
2023/07/13 10:35:35;;;;;;;0.10;0.10;;;14.70;59.10;;;;;;5052379;28;20223;-57
2023/07/13 10:38:09;;;;;;;0.10;0.10;;;14.70;59.10;;;;;;5053106;28;20191;-54
2023/07/13 10:40:42;;;;;;;0.05;0.05;;;14.70;59.10;;;;;;5052913;28;20281;-56
2023/07/13 10:43:19;;;;;;;0.10;0.10;;;14.80;59.20;;;;;;5053484;28;20282;-53
2023/07/13 10:45:54;;;;;;;0.10;0.10;;;14.70;59.10;;;;;;5051955;28;20638;-53
2023/07/13 10:48:26;;;;;;;0.10;0.10;;;14.70;59.10;;;;;;5053812;28;20732;-51
2023/07/13 10:50:58;;;;;;;0.10;0.10;;;14.70;59.10;;;;;;5053072;28;20207;-54
2023/07/13 10:53:34;;;;;;;0.00;0.00;;;14.70;59.10;;;;;;5052709;28;20199;-53
2023/07/13 10:56:08;;;;;;;0.10;0.10;;;14.70;59.10;;;;;;5053647;28;20254;-58
2023/07/13 10:58:40;;;;;;;0.10;0.10;;;14.60;59.10;;;;;;5037127;28;20200;-56
2023/07/13 11:01:17;;;;;;;0.10;0.10;;;14.60;59.00;;;;;;5041289;28;20238;-58
2023/07/13 11:03:53;;;;;;;0.10;0.10;;;14.60;59.10;;;;;;5050171;28;20257;-60
2023/07/13 11:06:41;;;;;;;0.00;0.00;;;14.60;59.00;;;;;;5052560;28;20195;-58
2023/07/13 11:09:34;;;;;;;0.10;0.10;;;14.60;59.00;;;;;;5051492;28;20241;-56
2023/07/13 11:12:09;;;;;;;0.10;0.10;;;14.60;59.00;;;;;;5052640;28;20203;-59
2023/07/13 11:14:44;;;;;;;0.10;0.10;;;14.60;59.00;;;;;;5050920;28;20309;-57
2023/07/13 11:17:58;;;;;;;0.10;0.10;;;14.60;59.00;;;;;;5042177;28;20202;-57
2023/07/13 11:20:42;;;;;;;0.10;0.10;;;14.50;59.00;;;;;;5020610;28;20227;-55
2023/07/13 11:23:33;;;;;;;0.10;0.10;;;14.60;59.00;;;;;;5040595;28;20246;-55
2023/07/13 11:26:04;;;;;;;0.10;0.10;;;14.50;59.00;;;;;;5050836;28;20567;-55
2023/07/13 11:28:36;;;;;;;0.10;0.10;;;14.50;59.00;;;;;;5052148;28;20195;-59
2023/07/13 11:31:23;;;;;;;0.10;0.10;;;14.50;59.10;;;;;;5049673;28;20200;-58
2023/07/13 11:34:00;;;;;;;0.10;0.10;;;14.50;59.10;;;;;;5051953;28;20243;-56
2023/07/13 11:36:41;;;;;;;0.10;0.10;;;14.50;59.10;;;;;;5050784;28;20639;-55
2023/07/13 11:39:20;;;;;;;0.10;0.10;;;14.50;59.10;;;;;;5047898;28;20242;-56
2023/07/13 11:41:55;;;;;;;0.10;0.10;;;14.50;59.00;;;;;;5052376;28;20285;-54
2023/07/13 11:44:27;;;;;;;0.17;0.17;;;14.50;59.00;;;;;;5050461;28;20218;-59
2023/07/13 11:47:00;;;;;;;0.10;0.10;;;14.50;59.00;;;;;;5070223;28;20203;-55
2023/07/13 11:49:32;;;;;;;0.10;0.10;;;14.50;59.00;;;;;;5066596;28;20210;-58
2023/07/13 11:52:05;;;;;;;0.10;0.10;;;14.50;59.00;;;;;;5057330;28;20269;-56
2023/07/13 11:54:50;;;;;;;0.05;0.05;;;14.50;59.00;;;;;;5050387;28;20219;-58
2023/07/13 11:57:28;;;;;;;0.10;0.10;;;14.50;59.00;;;;;;5071786;28;20202;-56
2023/07/13 12:00:00;;;;;;;0.10;0.10;;;14.50;59.00;;;;;;5050145;28;20285;-58
2023/07/13 12:02:34;;;;;;;0.10;0.10;;;14.50;59.00;;;;;;5051411;28;20208;-53
2023/07/13 12:05:06;;;;;;;0.10;0.10;;;14.40;59.00;;;;;;5051964;28;20219;-53
2023/07/13 12:07:39;;;;;;;0.10;0.10;;;14.40;59.00;;;;;;5051871;28;20245;-59
2023/07/13 12:10:23;;;;;;;0.10;0.10;;;14.40;59.00;;;;;;5051917;28;20243;-55
2023/07/13 12:12:56;;;;;;;0.10;0.10;;;14.40;59.00;;;;;;5052321;28;20286;-55
2023/07/13 12:15:31;;;;;;;0.10;0.10;;;14.40;59.00;;;;;;5052379;28;20273;-56
2023/07/13 12:18:02;;;;;;;0.10;0.10;;;14.40;59.00;;;;;;5043435;28;20198;-60
2023/07/13 12:20:39;;;;;;;0.10;0.10;;;14.40;59.00;;;;;;5041232;28;20247;-57
2023/07/13 12:23:26;;;;;;;0.15;0.15;;;14.40;59.00;;;;;;5041288;28;20199;-59
2023/07/13 12:25:57;;;;;;;0.10;0.10;;;14.40;59.00;;;;;;5041429;28;20240;-53
2023/07/13 12:28:38;;;;;;;0.20;0.20;;;14.40;58.90;;;;;;5040691;28;20188;-54
2023/07/13 12:31:25;;;;;;;0.10;0.10;;;14.40;58.90;;;;;;5041124;28;20294;-55
2023/07/13 12:34:02;;;;;;;0.10;0.10;;;14.40;58.90;;;;;;5041166;28;20188;-54
2023/07/13 12:36:36;;;;;;;0.10;0.10;;;14.40;58.90;;;;;;5041167;28;20207;-57
2023/07/13 12:39:18;;;;;;;0.00;0.00;;;14.40;58.90;;;;;;5040504;28;20188;-57
2023/07/13 12:41:49;;;;;;;0.10;0.10;;;14.40;59.00;;;;;;5039838;28;20625;-58
2023/07/13 12:44:26;;;;;;;0.10;0.10;;;14.30;58.90;;;;;;5040654;28;20208;-55
2023/07/13 12:46:59;;;;;;;0.10;0.10;;;14.40;59.00;;;;;;5041026;28;20747;-58
2023/07/13 12:49:34;;;;;;;0.10;0.10;;;14.30;58.90;;;;;;5041503;28;20192;-56
2023/07/13 12:52:14;;;;;;;0.10;0.10;;;14.30;59.00;;;;;;5042315;28;20230;-55
2023/07/13 12:54:57;;;;;;;0.10;0.10;;;14.30;59.00;;;;;;5042786;28;20222;-54
2023/07/13 12:57:28;;;;;;;0.10;0.10;;;14.30;59.00;;;;;;5041374;28;20271;-54
2023/07/13 12:59:59;;;;;;;0.10;0.10;;;14.30;58.90;;;;;;5041613;28;20275;-55
2023/07/13 13:02:34;;;;;;;0.10;0.10;;;14.30;58.90;;;;;;5040854;28;20609;-51
2023/07/13 13:05:06;;;;;;;0.10;0.10;;;14.30;58.90;;;;;;5042223;28;20211;-54
2023/07/13 13:07:36;;;;;;;0.10;0.10;;;14.30;58.90;;;;;;5040170;28;20238;-54
2023/07/13 13:10:15;;;;;;;0.10;0.10;;;14.30;58.90;;;;;;5037762;28;20188;-56
2023/07/13 13:12:46;;;;;;;0.10;0.10;;;14.30;58.90;;;;;;5039491;28;20203;-56
2023/07/13 13:15:17;;;;;;;0.20;0.20;;;14.30;58.90;;;;;;5035298;28;20215;-54
2023/07/13 13:17:48;;;;;;;0.10;0.10;;;14.30;58.90;;;;;;5030914;28;20283;-51
2023/07/13 13:20:20;;;;;;;0.10;0.10;;;14.30;58.90;;;;;;5031568;28;20206;-55